Big Falls, Wisconsin
Current Conditions -  °F | °C
As of 10:35 AM on Monday 26 Jan 2015 (Local Time) from KCLI Reporting Station
Light Snow Light Snow  
Wind Chill: 11°   Ceiling: 3200
Heat Index: 21°   Visibility: 3mi
Dew Point: 14°   Wind: 9mph
Humidity: 74%   Direction: 170°S
Pressure: 29.86"   Gusts: NA
Location:  44.62°N, 89.02°W
Report Text: KCLI 261635Z AUTO 17008KT 3SM -SN SCT024 OVC032 M06/M10 A2986 RMK AO2
Loading
Personal Weather Stations






























Interactive Weather Map New forecast layout! Learn more

10-Day Weather Forecast

Advertisements
Track Severe Weather on mobile